Time;durP1;ratioP1;P1;durP2;ratioP2;P2;SDS_P1;SDS_P2;PMS_P1;PMS_P2;Temp;Humidity;BMP_temperature;BMP_pressure;BME280_temperature;BME280_humidity;BME280_pressure;Samples;Min_cycle;Max_cycle;Signal;HPM_P1;HPM_P2
2023/08/03 00:00:54;;;;;;;2.93;2.73;;;;;;;16.05;100.00;96327.72;6146944;28;20253;-61
2023/08/03 00:04:00;;;;;;;4.40;3.00;;;;;;;16.04;100.00;96328.84;6149701;28;20245;-61
2023/08/03 00:07:03;;;;;;;3.37;2.80;;;;;;;16.00;100.00;96327.88;6148502;28;20693;-58
2023/08/03 00:10:05;;;;;;;3.67;3.13;;;;;;;15.99;100.00;96335.13;6147374;28;20250;-60
2023/08/03 00:13:07;;;;;;;3.67;2.93;;;;;;;15.96;100.00;96335.78;6151119;28;20743;-61
2023/08/03 00:16:10;;;;;;;3.50;3.00;;;;;;;15.92;100.00;96344.75;6138302;28;20249;-60
2023/08/03 00:19:12;;;;;;;3.67;3.27;;;;;;;15.88;100.00;96352.63;6146963;28;20245;-61
2023/08/03 00:22:15;;;;;;;4.00;3.27;;;;;;;15.83;100.00;96358.13;6151380;28;20242;-62
2023/08/03 00:25:17;;;;;;;3.23;2.83;;;;;;;15.82;100.00;96361.13;6150139;28;20722;-62
2023/08/03 00:28:21;;;;;;;6.23;3.43;;;;;;;15.73;100.00;96364.53;6148279;28;20312;-60
2023/08/03 00:31:23;;;;;;;3.07;2.77;;;;;;;15.69;100.00;96377.00;6142923;28;20716;-61
2023/08/03 00:34:27;;;;;;;2.97;2.77;;;;;;;15.67;100.00;96389.94;6146940;28;20327;-61
2023/08/03 00:37:30;;;;;;;4.30;3.07;;;;;;;15.66;100.00;96380.31;6150926;28;20376;-60
2023/08/03 00:40:33;;;;;;;3.13;2.83;;;;;;;15.57;100.00;96379.44;6137127;28;20237;-60
2023/08/03 00:43:36;;;;;;;5.30;3.40;;;;;;;15.66;100.00;96396.41;6144693;28;20238;-60
2023/08/03 00:46:39;;;;;;;3.47;3.10;;;;;;;15.64;100.00;96403.19;6144094;28;20289;-61
2023/08/03 00:49:42;;;;;;;5.13;3.93;;;;;;;15.57;100.00;96402.78;6145114;28;20707;-62
2023/08/03 00:52:45;;;;;;;3.47;3.17;;;;;;;15.54;100.00;96403.38;6152712;28;20316;-62
2023/08/03 00:55:47;;;;;;;5.03;3.73;;;;;;;15.46;100.00;96402.22;6150357;28;20368;-62
2023/08/03 00:58:49;;;;;;;3.57;2.90;;;;;;;15.43;100.00;96408.22;6144540;28;20237;-62
2023/08/03 01:01:51;;;;;;;4.50;3.23;;;;;;;15.40;100.00;96409.59;6145197;28;20234;-60
2023/08/03 01:04:55;;;;;;;3.37;3.07;;;;;;;15.37;100.00;96412.91;6148073;28;20321;-60
2023/08/03 01:07:58;;;;;;;3.40;3.10;;;;;;;15.32;100.00;96399.59;6151004;28;20246;-62
2023/08/03 01:11:01;;;;;;;5.30;3.13;;;;;;;15.37;100.00;96412.91;6145204;28;20321;-62
2023/08/03 01:14:04;;;;;;;3.30;3.10;;;;;;;15.32;100.00;96417.56;6140210;28;20732;-58
2023/08/03 01:17:07;;;;;;;3.60;3.30;;;;;;;15.38;100.00;96427.13;6146858;28;20242;-62
2023/08/03 01:20:10;;;;;;;3.77;3.37;;;;;;;15.41;100.00;96437.22;6128889;28;20242;-60
2023/08/03 01:23:13;;;;;;;3.70;3.30;;;;;;;15.23;100.00;96418.31;6150164;28;20237;-60
2023/08/03 01:26:15;;;;;;;4.30;3.90;;;;;;;15.41;100.00;96466.75;6145654;28;20241;-62
2023/08/03 01:29:17;;;;;;;5.30;4.80;;;;;;;15.38;100.00;96467.38;6146896;28;20308;-59
2023/08/03 01:32:21;;;;;;;8.27;4.60;;;;;;;15.34;100.00;96472.53;6146051;28;20233;-59
2023/08/03 01:35:23;;;;;;;5.10;4.20;;;;;;;15.29;100.00;96471.84;6139797;28;20226;-62
2023/08/03 01:38:25;;;;;;;4.23;3.60;;;;;;;15.26;100.00;96475.13;6120177;28;20233;-61
2023/08/03 01:41:28;;;;;;;3.57;3.27;;;;;;;15.33;100.00;96467.47;6148874;28;20272;-61
2023/08/03 01:44:30;;;;;;;5.33;4.07;;;;;;;15.41;100.00;96466.75;6145395;28;20254;-62
2023/08/03 01:47:33;;;;;;;7.70;3.73;;;;;;;15.57;100.00;96472.59;6144739;28;20226;-62
2023/08/03 01:50:35;;;;;;;3.50;3.20;;;;;;;15.96;100.00;96453.16;6126819;28;20326;-61
2023/08/03 01:53:37;;;;;;;4.03;3.33;;;;;;;16.16;100.00;96465.28;6143212;28;20254;-59
2023/08/03 01:56:40;;;;;;;4.57;3.97;;;;;;;16.18;100.00;96471.94;6145461;28;20238;-59
2023/08/03 01:59:42;;;;;;;7.87;5.07;;;;;;;16.11;100.00;96482.34;6136234;28;20606;-62
2023/08/03 02:02:44;;;;;;;4.93;3.30;;;;;;;16.34;100.00;96461.59;6144460;28;20226;-59
2023/08/03 02:05:49;;;;;;;5.43;3.23;;;;;;;16.67;100.00;96486.25;6144673;28;20225;-61
2023/08/03 02:08:51;;;;;;;3.10;2.80;;;;;;;16.90;100.00;96487.03;6141005;28;20234;-57
2023/08/03 02:11:54;;;;;;;3.13;2.83;;;;;;;16.98;100.00;96493.53;6145208;28;20257;-62
2023/08/03 02:14:56;;;;;;;3.23;2.50;;;;;;;17.17;100.00;96520.16;6150986;28;20267;-62
2023/08/03 02:17:58;;;;;;;3.17;2.67;;;;;;;17.28;100.00;96538.41;6145216;28;20760;-60
2023/08/03 02:21:01;;;;;;;4.90;2.80;;;;;;;17.29;100.00;96544.59;6153023;28;20695;-57
2023/08/03 02:24:03;;;;;;;2.33;2.13;;;;;;;17.50;100.00;96550.97;6135478;28;20236;-62
2023/08/03 02:27:07;;;;;;;2.20;2.00;;;;;;;17.57;100.00;96571.25;6148504;28;20217;-60
2023/08/03 02:30:09;;;;;;;4.00;2.33;;;;;;;17.53;100.00;96571.88;6153976;28;20245;-62
2023/08/03 02:33:14;;;;;;;2.20;2.00;;;;;;;17.93;98.32;96584.47;6148599;28;20214;-62
2023/08/03 02:36:17;;;;;;;2.30;2.10;;;;;;;17.84;98.42;96572.94;6134929;28;20353;-60
2023/08/03 02:39:21;;;;;;;2.83;2.27;;;;;;;17.90;97.76;96599.41;6146735;28;20203;-61
2023/08/03 02:42:24;;;;;;;2.07;1.87;;;;;;;18.04;94.34;96608.13;6150896;28;20230;-61
2023/08/03 02:45:28;;;;;;;1.90;1.73;;;;;;;18.45;90.25;96604.16;6148428;28;20241;-62
2023/08/03 02:48:32;;;;;;;3.80;2.00;;;;;;;18.48;89.97;96608.13;6148100;28;20234;-60
2023/08/03 02:51:38;;;;;;;4.40;2.10;;;;;;;18.35;89.97;96617.19;6146517;28;20253;-64
2023/08/03 02:54:41;;;;;;;2.30;2.10;;;;;;;18.67;86.42;96621.25;6156489;28;20607;-62
2023/08/03 02:57:44;;;;;;;2.40;2.20;;;;;;;18.63;86.48;96618.44;6147950;28;20291;-63
2023/08/03 03:00:47;;;;;;;3.00;2.40;;;;;;;18.66;85.57;96625.06;6150080;28;20600;-59
2023/08/03 03:03:50;;;;;;;2.47;2.27;;;;;;;18.65;84.42;96632.38;6132359;28;20283;-61
2023/08/03 03:06:52;;;;;;;4.47;2.17;;;;;;;18.64;84.98;96649.69;6150018;28;20636;-62
2023/08/03 03:09:55;;;;;;;2.40;2.10;;;;;;;18.83;83.24;96665.56;6148472;28;20242;-62
2023/08/03 03:12:57;;;;;;;2.37;2.10;;;;;;;18.87;82.01;96673.81;6138813;28;20234;-62
2023/08/03 03:15:59;;;;;;;3.30;2.47;;;;;;;18.96;82.00;96674.56;6148434;28;20317;-62
2023/08/03 03:19:02;;;;;;;3.17;1.97;;;;;;;18.95;82.19;96678.41;6151050;28;20234;-62
2023/08/03 03:22:05;;;;;;;2.37;2.17;;;;;;;19.11;81.09;96679.47;6147399;28;20238;-59
2023/08/03 03:25:08;;;;;;;4.87;2.27;;;;;;;19.16;80.83;96692.81;6149074;28;20229;-60
2023/08/03 03:28:10;;;;;;;2.67;2.00;;;;;;;19.10;81.99;96696.78;6147867;28;20241;-62
2023/08/03 03:31:13;;;;;;;3.33;2.20;;;;;;;19.03;82.46;96702.69;6149753;28;20245;-59
2023/08/03 03:34:15;;;;;;;3.47;2.30;;;;;;;18.87;83.16;96690.03;6150318;28;20381;-61
2023/08/03 03:37:19;;;;;;;3.67;2.00;;;;;;;18.71;85.40;96703.97;6148672;28;20234;-61
2023/08/03 03:40:22;;;;;;;3.60;2.80;;;;;;;18.51;85.65;96680.31;6148791;28;20238;-62
2023/08/03 03:43:25;;;;;;;2.53;2.07;;;;;;;18.51;87.22;96699.19;6133006;28;20602;-59
2023/08/03 03:46:27;;;;;;;2.13;1.87;;;;;;;18.59;83.98;96706.50;6136571;29;20691;-60
2023/08/03 03:49:29;;;;;;;2.10;1.70;;;;;;;18.87;79.17;96700.81;6140276;28;20664;-62
2023/08/03 03:52:31;;;;;;;1.67;1.57;;;;;;;18.80;79.21;96685.88;6147329;28;20244;-61
2023/08/03 03:55:34;;;;;;;5.87;2.27;;;;;;;18.90;83.40;96709.03;6149399;28;20240;-57
2023/08/03 03:58:36;;;;;;;3.67;1.80;;;;;;;18.66;85.03;96720.28;6131021;28;20373;-62
2023/08/03 04:01:38;;;;;;;3.07;1.90;;;;;;;18.48;86.63;96726.81;6148481;28;20722;-61
2023/08/03 04:04:41;;;;;;;4.07;2.00;;;;;;;18.28;88.88;96729.00;6148554;28;20320;-61
2023/08/03 04:07:43;;;;;;;2.40;1.33;;;;;;;18.66;70.30;96727.59;6149116;28;20233;-60
2023/08/03 04:10:45;;;;;;;2.23;1.27;;;;;;;18.80;71.97;96747.94;6147055;28;20234;-62
2023/08/03 04:13:48;;;;;;;1.50;1.40;;;;;;;18.75;73.10;96742.69;6146739;28;20238;-61
2023/08/03 04:16:50;;;;;;;3.63;1.37;;;;;;;18.69;74.10;96760.16;6147830;28;20237;-61
2023/08/03 04:19:53;;;;;;;2.67;1.33;;;;;;;18.63;76.67;96768.72;6147991;28;20265;-62
2023/08/03 04:22:55;;;;;;;3.27;1.40;;;;;;;18.43;77.57;96772.81;6145665;28;20325;-61
2023/08/03 04:25:59;;;;;;;2.13;1.00;;;;;;;18.33;75.20;96767.72;6146701;28;20237;-61
2023/08/03 04:29:01;;;;;;;3.13;1.10;;;;;;;18.39;71.90;96771.84;6145701;28;20229;-60
2023/08/03 04:32:05;;;;;;;2.53;1.60;;;;;;;18.39;71.70;96774.53;6137536;28;20237;-61
2023/08/03 04:35:09;;;;;;;2.17;1.37;;;;;;;18.53;67.90;96786.00;6146091;28;20237;-61
2023/08/03 04:38:16;;;;;;;1.53;1.13;;;;;;;18.61;69.15;96789.78;6149126;28;20237;-56
2023/08/03 04:41:26;;;;;;;2.50;1.40;;;;;;;18.58;67.84;96807.41;6150504;28;20377;-60
2023/08/03 04:44:29;;;;;;;3.00;1.00;;;;;;;18.70;67.51;96820.31;6147190;28;20229;-60
2023/08/03 04:47:31;;;;;;;2.57;0.93;;;;;;;18.91;65.08;96821.28;6146396;28;20707;-60
2023/08/03 04:50:34;;;;;;;2.23;1.10;;;;;;;18.86;66.79;96828.72;6147273;28;20230;-59
2023/08/03 04:53:36;;;;;;;3.33;1.30;;;;;;;18.69;70.69;96838.41;6146408;28;20904;-61
2023/08/03 04:56:39;;;;;;;2.20;1.00;;;;;;;18.68;70.35;96844.09;6155317;28;20229;-61
2023/08/03 04:59:41;;;;;;;2.37;1.03;;;;;;;18.69;69.35;96833.00;6118409;29;20238;-61
2023/08/03 05:02:44;;;;;;;2.00;1.07;;;;;;;18.59;72.51;96833.28;6134308;29;20231;-61
2023/08/03 05:05:46;;;;;;;2.47;1.17;;;;;;;18.59;70.51;96829.78;6133897;29;20381;-59
2023/08/03 05:08:52;;;;;;;4.47;1.57;;;;;;;18.80;68.46;96833.50;6137125;28;20317;-61
2023/08/03 05:12:00;;;;;;;2.00;1.23;;;;;;;18.75;69.90;96842.53;6148782;28;20223;-61
2023/08/03 05:15:03;;;;;;;1.13;0.97;;;;;;;18.99;68.20;96844.78;6150364;28;20693;-61
2023/08/03 05:18:06;;;;;;;2.93;1.30;;;;;;;18.85;69.50;96852.22;6145743;28;20227;-60
2023/08/03 05:21:08;;;;;;;2.33;1.30;;;;;;;18.85;69.51;96837.94;6149306;28;20214;-62
2023/08/03 05:24:10;;;;;;;3.20;1.20;;;;;;;18.97;67.63;96851.63;6128219;28;20273;-58
2023/08/03 05:27:13;;;;;;;3.20;1.20;;;;;;;18.95;68.25;96859.22;6150374;28;20222;-60
2023/08/03 05:30:16;;;;;;;1.83;1.20;;;;;;;18.94;68.87;96849.56;6145579;28;20245;-61
2023/08/03 05:33:21;;;;;;;1.50;1.07;;;;;;;18.90;70.59;96854.00;6148843;28;20227;-61
2023/08/03 05:36:23;;;;;;;3.87;1.23;;;;;;;18.85;72.27;96846.03;6144856;28;20237;-61
2023/08/03 05:39:26;;;;;;;2.13;1.13;;;;;;;18.82;73.13;96844.78;6143472;28;20284;-65
2023/08/03 05:42:35;;;;;;;3.90;1.10;;;;;;;18.85;73.75;96844.13;6150319;28;20218;-62
2023/08/03 05:45:41;;;;;;;2.53;1.10;;;;;;;18.85;70.42;96827.94;6151830;28;20226;-61
2023/08/03 05:48:52;;;;;;;3.63;1.57;;;;;;;19.13;70.75;96855.44;6146838;28;20226;-59
2023/08/03 05:51:54;;;;;;;2.47;1.20;;;;;;;19.16;72.85;96846.72;6153501;28;20273;-59
2023/08/03 05:54:56;;;;;;;2.00;1.00;;;;;;;19.32;68.71;96845.13;6153114;28;20284;-60
2023/08/03 05:58:00;;;;;;;2.10;1.13;;;;;;;19.41;67.02;96850.53;6145769;28;20258;-61
2023/08/03 06:01:02;;;;;;;3.00;1.27;;;;;;;19.37;69.97;96851.47;6152829;28;20237;-61
2023/08/03 06:04:11;;;;;;;2.27;1.10;;;;;;;19.48;74.62;96864.34;6152882;28;20261;-61
2023/08/03 06:07:13;;;;;;;4.03;1.30;;;;;;;19.41;69.99;96866.72;6152912;28;20238;-61
2023/08/03 06:10:16;;;;;;;3.23;1.20;;;;;;;19.36;72.07;96861.50;6156362;28;20248;-61
2023/08/03 06:13:25;;;;;;;3.80;1.37;;;;;;;19.27;73.21;96860.69;6133236;28;20802;-60
2023/08/03 06:16:27;;;;;;;3.83;1.30;;;;;;;19.20;73.69;96860.34;6134141;28;20233;-61
2023/08/03 06:19:31;;;;;;;2.90;1.30;;;;;;;19.16;74.39;96854.81;6150883;28;20242;-60
2023/08/03 06:22:33;;;;;;;1.10;1.00;;;;;;;19.09;74.71;96862.59;6144460;28;20283;-62
2023/08/03 06:25:36;;;;;;;2.17;1.03;;;;;;;19.05;75.56;96862.41;6151999;28;20240;-60
2023/08/03 06:28:39;;;;;;;1.70;1.20;;;;;;;19.00;75.52;96862.56;6155704;28;20233;-61
2023/08/03 06:31:41;;;;;;;1.63;1.20;;;;;;;18.93;75.55;96854.16;6152452;28;20286;-61
2023/08/03 06:34:44;;;;;;;1.60;1.03;;;;;;;18.86;75.73;96851.13;6155951;28;20775;-61
2023/08/03 06:37:46;;;;;;;1.93;0.90;;;;;;;18.77;76.09;96856.53;6152376;28;20612;-60
2023/08/03 06:40:50;;;;;;;2.33;1.27;;;;;;;18.72;76.52;96848.56;6153296;28;20244;-61
2023/08/03 06:43:54;;;;;;;2.67;1.10;;;;;;;18.64;76.96;96864.72;6151917;28;20229;-60
2023/08/03 06:46:56;;;;;;;2.07;1.30;;;;;;;18.55;77.74;96861.97;6155748;28;20245;-59
2023/08/03 06:50:01;;;;;;;4.63;1.07;;;;;;;18.41;78.14;96845.13;6141086;28;20235;-61
2023/08/03 06:53:05;;;;;;;4.80;1.53;;;;;;;18.37;78.58;96860.31;6141221;28;20238;-61
2023/08/03 06:56:07;;;;;;;2.13;1.23;;;;;;;18.42;77.34;96876.38;6141399;28;20230;-60
2023/08/03 06:59:10;;;;;;;5.53;1.50;;;;;;;18.35;77.09;96889.50;6140374;28;20241;-60
2023/08/03 07:02:13;;;;;;;7.67;1.77;;;;;;;18.34;77.00;96888.72;6149647;28;20231;-60
2023/08/03 07:05:15;;;;;;;7.53;1.40;;;;;;;18.29;76.10;96894.25;6132320;28;20238;-60
2023/08/03 07:08:17;;;;;;;2.50;1.07;;;;;;;18.27;76.42;96891.06;6149168;28;20238;-61
2023/08/03 07:11:20;;;;;;;4.13;1.63;;;;;;;18.25;76.19;96896.78;6149808;28;20236;-60
2023/08/03 07:14:22;;;;;;;2.57;1.30;;;;;;;18.23;76.34;96890.91;6149784;28;20233;-61
2023/08/03 07:17:24;;;;;;;3.50;1.07;;;;;;;18.25;76.16;96893.28;6150076;28;20324;-59
2023/08/03 07:20:26;;;;;;;2.83;1.27;;;;;;;18.18;76.47;96880.25;6148864;28;20253;-60
2023/08/03 07:23:33;;;;;;;2.90;1.10;;;;;;;18.19;75.76;96889.13;6152184;28;20242;-60
2023/08/03 07:26:35;;;;;;;2.40;1.07;;;;;;;18.26;76.44;96914.53;6150242;28;20237;-59
2023/08/03 07:29:37;;;;;;;1.30;1.00;;;;;;;18.26;76.68;96911.03;6140688;28;20585;-60
2023/08/03 07:32:40;;;;;;;4.27;1.40;;;;;;;18.20;77.36;96913.09;6149536;28;20229;-60
2023/08/03 07:35:42;;;;;;;2.13;1.07;;;;;;;18.20;78.16;96906.91;6149496;28;20237;-60
2023/08/03 07:38:44;;;;;;;3.63;1.30;;;;;;;18.12;76.56;96913.03;6149213;28;20234;-61
2023/08/03 07:41:47;;;;;;;2.43;1.30;;;;;;;18.13;76.73;96923.53;6152940;28;20280;-59
2023/08/03 07:44:53;;;;;;;3.73;1.33;;;;;;;18.12;76.40;96931.91;6153222;28;20230;-60
2023/08/03 07:47:56;;;;;;;2.00;1.30;;;;;;;18.13;75.75;96926.22;6148627;28;20381;-60
2023/08/03 07:50:58;;;;;;;2.67;1.20;;;;;;;18.50;63.27;96926.84;6150638;28;20234;-61
2023/08/03 07:54:00;;;;;;;3.23;1.47;;;;;;;18.58;68.25;96936.09;6147872;28;20257;-52
2023/08/03 07:57:04;;;;;;;2.80;1.10;;;;;;;18.44;71.75;96914.63;6148198;28;20586;-61
2023/08/03 08:00:07;;;;;;;8.57;7.23;;;;;;;18.49;72.52;96946.84;6148195;28;20210;-59
2023/08/03 08:03:12;;;;;;;3.07;1.90;;;;;;;18.45;73.57;96953.97;6130864;28;20369;-58
2023/08/03 08:06:20;;;;;;;3.00;1.40;;;;;;;18.37;74.29;96952.00;6148995;28;20237;-58
2023/08/03 08:09:25;;;;;;;2.83;1.63;;;;;;;18.38;75.13;96961.72;6134402;28;20233;-59
2023/08/03 08:12:29;;;;;;;3.67;1.30;;;;;;;18.34;75.13;96966.94;6146391;28;20696;-58
2023/08/03 08:15:34;;;;;;;2.03;1.30;;;;;;;18.35;75.32;96959.63;6148679;28;20234;-57
2023/08/03 08:18:49;;;;;;;3.10;1.40;;;;;;;18.35;74.85;96946.94;6145046;28;20382;-59
2023/08/03 08:22:11;;;;;;;1.60;1.10;;;;;;;18.29;75.37;96959.75;6146777;28;20231;-60
2023/08/03 08:25:20;;;;;;;2.30;1.10;;;;;;;18.22;75.32;96964.78;6127319;28;20738;-57
2023/08/03 08:28:27;;;;;;;2.30;1.07;;;;;;;18.18;76.69;96971.91;6146137;28;20241;-60
2023/08/03 08:31:29;;;;;;;3.47;1.20;;;;;;;18.14;77.30;96973.63;6146197;28;20238;-58
2023/08/03 08:34:34;;;;;;;3.97;1.10;;;;;;;18.01;77.61;96961.00;6147441;28;20226;-58
2023/08/03 08:37:36;;;;;;;2.53;1.27;;;;;;;17.97;77.96;96986.97;6149100;28;20332;-59
2023/08/03 08:40:40;;;;;;;5.80;1.47;;;;;;;17.91;78.65;96988.22;6145685;28;20232;-59
2023/08/03 08:43:42;;;;;;;2.73;0.93;;;;;;;17.92;77.84;96992.50;6143423;28;20277;-60
2023/08/03 08:46:45;;;;;;;2.30;1.10;;;;;;;17.82;79.63;96992.72;6145601;28;20237;-59
2023/08/03 08:49:49;;;;;;;2.10;1.20;;;;;;;17.74;79.37;96995.06;6147800;28;20242;-59
2023/08/03 08:53:14;;;;;;;2.93;1.50;;;;;;;17.69;79.26;97007.81;6145219;28;20247;-57
2023/08/03 08:56:17;;;;;;;2.63;1.17;;;;;;;17.64;78.27;97022.19;6128916;28;20233;-59
2023/08/03 08:59:22;;;;;;;3.73;1.17;;;;;;;17.67;74.52;97026.97;6145589;28;20234;-58
2023/08/03 09:02:27;;;;;;;3.37;1.23;;;;;;;17.89;68.39;97033.53;6148811;28;20238;-58
2023/08/03 09:05:29;;;;;;;3.53;1.23;;;;;;;17.90;71.12;97035.91;6146055;28;20233;-59
2023/08/03 09:08:55;;;;;;;2.40;0.87;;;;;;;17.93;72.16;97024.53;6144467;28;20226;-57
2023/08/03 09:11:57;;;;;;;1.70;1.00;;;;;;;17.83;73.14;97026.66;6144771;28;20243;-60
2023/08/03 09:14:59;;;;;;;2.13;1.00;;;;;;;17.87;71.30;97022.25;6151124;28;20237;-59
2023/08/03 09:18:05;;;;;;;1.50;1.00;;;;;;;17.81;75.05;97026.16;6144660;28;20248;-56
2023/08/03 09:21:12;;;;;;;2.00;0.90;;;;;;;17.71;75.82;97016.38;6145305;28;20211;-60
2023/08/03 09:24:18;;;;;;;4.03;1.23;;;;;;;17.67;76.55;97007.31;6143702;28;20309;-59
2023/08/03 09:27:23;;;;;;;1.50;0.97;;;;;;;17.57;76.96;96997.56;6146228;28;20256;-59
2023/08/03 09:30:52;;;;;;;5.03;1.00;;;;;;;17.59;78.83;97008.84;6144557;28;20273;-59
2023/08/03 09:34:00;;;;;;;1.20;0.80;;;;;;;17.46;77.66;97005.06;6142735;28;20664;-58
2023/08/03 09:37:03;;;;;;;1.80;0.90;;;;;;;17.60;74.48;97017.72;6146818;28;20775;-58
2023/08/03 09:40:09;;;;;;;1.87;0.80;;;;;;;17.67;72.56;97018.88;6142509;28;20236;-58
2023/08/03 09:43:14;;;;;;;3.30;1.03;;;;;;;17.79;72.84;97015.72;6146163;28;20257;-59
2023/08/03 09:46:36;;;;;;;2.00;1.00;;;;;;;17.88;73.27;97013.06;6147525;28;20358;-60
2023/08/03 09:49:38;;;;;;;2.97;1.00;;;;;;;17.84;73.52;97017.50;6146654;28;20226;-59
2023/08/03 09:52:46;;;;;;;1.43;0.77;;;;;;;17.69;74.30;97014.00;6147842;28;20237;-60
2023/08/03 09:56:00;;;;;;;3.03;0.77;;;;;;;17.71;74.54;97027.16;6136405;28;20238;-59
2023/08/03 09:59:06;;;;;;;2.37;0.97;;;;;;;17.65;75.23;97018.41;6133690;28;20237;-59
2023/08/03 10:02:10;;;;;;;1.13;0.93;;;;;;;17.54;76.58;97014.34;6144966;28;20738;-58
2023/08/03 10:05:17;;;;;;;2.07;0.90;;;;;;;17.47;78.00;97043.56;6146678;28;20381;-58
2023/08/03 10:08:56;;;;;;;3.60;1.07;;;;;;;17.40;79.23;97062.84;6146859;28;20750;-60
2023/08/03 10:12:03;;;;;;;2.20;0.97;;;;;;;17.14;81.41;97062.56;6098329;29;20243;-59
2023/08/03 10:15:09;;;;;;;2.27;1.10;;;;;;;17.22;81.81;97087.97;6094516;29;20662;-58
2023/08/03 10:18:13;;;;;;;2.00;0.93;;;;;;;17.22;82.54;97086.06;6099292;29;20693;-56
2023/08/03 10:21:16;;;;;;;1.57;0.90;;;;;;;17.26;82.53;97086.28;6094315;28;20259;-58
2023/08/03 10:24:19;;;;;;;1.33;1.03;;;;;;;17.34;82.93;97092.84;6094526;29;20227;-58
2023/08/03 10:27:21;;;;;;;1.00;0.80;;;;;;;17.39;83.77;97106.19;6094886;29;20235;-60
2023/08/03 10:31:07;;;;;;;3.03;0.90;;;;;;;17.41;84.70;97106.72;6094773;29;20359;-59
2023/08/03 10:34:12;;;;;;;1.63;1.00;;;;;;;17.39;85.08;97116.97;6097360;29;20286;-59
2023/08/03 10:37:14;;;;;;;1.47;1.00;;;;;;;17.40;85.65;97113.19;6090349;29;20243;-59
2023/08/03 10:40:25;;;;;;;3.20;1.07;;;;;;;17.37;86.35;97103.03;6102585;29;20235;-59
2023/08/03 10:43:27;;;;;;;1.00;0.90;;;;;;;17.26;86.15;97083.59;6098941;29;20375;-60
2023/08/03 10:46:31;;;;;;;1.63;1.00;;;;;;;17.08;86.11;97085.25;6187568;23;20319;-94
2023/08/03 10:49:42;;;;;;;1.50;0.80;;;;;;;17.15;86.84;97066.84;6172948;28;20272;-94
2023/08/03 10:52:45;;;;;;;1.87;0.97;;;;;;;16.89;86.60;97026.16;6195700;28;20240;-95
2023/08/03 10:55:48;;;;;;;1.83;0.80;;;;;;;15.93;87.17;96868.22;6171581;28;20276;-93
2023/08/03 10:58:51;;;;;;;1.20;0.80;;;;;;;16.20;87.34;96901.56;6155201;28;20465;-94
2023/08/03 11:01:55;;;;;;;1.73;0.80;;;;;;;16.04;87.01;96868.81;6172975;28;20245;-95
2023/08/03 11:05:03;;;;;;;1.67;0.90;;;;;;;17.27;87.97;97055.56;6159933;28;20232;-95
2023/08/03 11:08:16;;;;;;;1.33;1.00;;;;;;;16.67;88.61;96975.72;6180006;28;20272;-94
2023/08/03 11:11:21;;;;;;;1.43;0.70;;;;;;;16.20;88.46;96897.00;6194750;28;20604;-96
2023/08/03 11:14:28;;;;;;;2.23;0.90;;;;;;;16.80;89.25;96982.22;6179420;28;20263;-95
2023/08/03 11:17:36;;;;;;;2.13;0.90;;;;;;;16.14;90.32;96900.06;6195112;28;20597;-95
2023/08/03 11:20:45;;;;;;;0.80;0.73;;;;;;;17.20;91.39;97109.81;6193888;28;20232;-95
2023/08/03 11:23:47;;;;;;;1.60;0.87;;;;;;;15.95;91.68;96898.25;6203692;28;20307;-96
2023/08/03 11:26:51;;;;;;;1.20;0.90;;;;;;;15.83;91.77;96894.44;6199711;28;20706;-95
2023/08/03 11:29:54;;;;;;;1.10;0.70;;;;;;;16.56;91.62;97006.56;6194681;28;20275;-95
2023/08/03 11:33:01;;;;;;;1.47;0.90;;;;;;;16.89;92.22;97106.84;6177005;28;20232;-94
2023/08/03 11:36:04;;;;;;;1.63;0.90;;;;;;;16.39;92.63;97081.59;6177501;28;20301;-95
2023/08/03 11:39:06;;;;;;;1.80;1.00;;;;;;;16.28;92.99;97045.22;6194200;28;20207;-94
2023/08/03 11:42:10;;;;;;;1.67;0.80;;;;;;;16.22;93.16;97023.03;6184930;28;20236;-94
2023/08/03 11:45:13;;;;;;;0.80;0.80;;;;;;;16.40;93.55;97029.44;6178157;28;20201;-96
2023/08/03 11:48:19;;;;;;;1.07;0.90;;;;;;;16.47;93.36;97027.97;6177254;28;20317;-95
2023/08/03 11:51:38;;;;;;;1.43;0.70;;;;;;;15.66;93.76;96893.13;6193933;28;20243;-95
2023/08/03 11:54:44;;;;;;;1.20;0.80;;;;;;;16.60;95.19;97068.59;6193974;28;20241;-95
2023/08/03 11:58:08;;;;;;;1.00;0.90;;;;;;;16.08;94.87;96979.19;6211182;28;20224;-95
2023/08/03 12:01:11;;;;;;;1.03;0.67;;;;;;;16.72;95.06;97063.59;6194713;28;20319;-95
2023/08/03 12:04:15;;;;;;;1.13;1.00;;;;;;;16.10;95.25;96958.97;6210507;28;20310;-94
2023/08/03 12:07:23;;;;;;;1.70;0.97;;;;;;;16.84;94.91;97071.19;6201872;28;20593;-95
2023/08/03 12:10:29;;;;;;;1.60;0.97;;;;;;;16.15;94.99;96925.84;6192277;28;20232;-94
2023/08/03 12:13:45;;;;;;;1.63;0.90;;;;;;;16.05;95.54;96924.13;6205040;28;20237;-93
2023/08/03 12:16:52;;;;;;;2.23;0.87;;;;;;;16.14;95.86;96951.13;6205192;28;20278;-94
2023/08/03 12:20:15;;;;;;;2.50;0.90;;;;;;;16.18;96.03;96927.94;6196407;28;20740;-93
2023/08/03 12:23:23;;;;;;;1.83;1.00;;;;;;;16.23;96.10;96955.53;6205168;28;20244;-95
2023/08/03 12:26:27;;;;;;;1.43;0.90;;;;;;;17.16;95.53;97095.34;6206916;28;20243;-94
2023/08/03 12:29:33;;;;;;;1.00;0.90;;;;;;;16.23;94.63;96944.00;6206070;28;20243;-94
2023/08/03 12:32:42;;;;;;;2.80;0.90;;;;;;;16.75;93.46;97047.69;6202069;28;20237;-94
2023/08/03 12:35:51;;;;;;;1.63;0.90;;;;;;;15.95;93.40;96918.94;6219392;28;20323;-95
2023/08/03 12:38:54;;;;;;;1.20;0.70;;;;;;;16.05;93.44;96948.31;6210295;28;20228;-94
2023/08/03 12:42:00;;;;;;;3.53;1.20;;;;;;;16.28;92.79;96983.41;6195548;28;20318;-94
2023/08/03 12:45:04;;;;;;;2.00;0.70;;;;;;;16.39;92.57;96995.56;6196945;28;20224;-95
2023/08/03 12:48:08;;;;;;;1.37;0.80;;;;;;;16.45;92.26;97023.97;6185807;28;20237;-94
2023/08/03 12:51:22;;;;;;;0.97;0.80;;;;;;;16.34;92.30;97017.16;6187680;28;20279;-94
2023/08/03 12:54:28;;;;;;;0.90;0.70;;;;;;;15.81;92.94;96934.22;6209205;28;20228;-95
2023/08/03 12:57:33;;;;;;;2.07;0.80;;;;;;;16.67;94.15;97077.91;6186334;28;20225;-94
2023/08/03 13:00:41;;;;;;;2.27;0.80;;;;;;;16.07;93.86;96975.72;6193659;28;20368;-95
2023/08/03 13:03:49;;;;;;;2.60;0.70;;;;;;;17.23;94.12;97154.94;6151555;23;20230;-55
2023/08/03 13:07:06;;;;;;;1.77;0.90;;;;;;;17.10;94.39;97150.38;6146190;28;20233;-54
2023/08/03 13:10:36;;;;;;;0.97;0.70;;;;;;;17.23;94.40;97154.94;6137225;28;20608;-55
2023/08/03 13:13:58;;;;;;;1.67;0.80;;;;;;;17.28;94.19;97146.78;6132908;28;20732;-55
2023/08/03 13:17:29;;;;;;;1.70;0.73;;;;;;;17.23;93.57;97124.53;6109414;28;20237;-55
2023/08/03 13:20:53;;;;;;;1.50;0.90;;;;;;;17.44;93.46;97141.94;6150409;28;20614;-56
2023/08/03 13:24:29;;;;;;;1.40;0.77;;;;;;;17.50;93.04;97148.00;6140861;28;20600;-54
2023/08/03 13:27:55;;;;;;;1.70;0.73;;;;;;;17.40;92.59;97150.91;6138014;28;20225;-55
2023/08/03 13:31:10;;;;;;;2.30;0.70;;;;;;;17.58;92.87;97158.06;6130091;28;20280;-53
2023/08/03 13:34:20;;;;;;;0.80;0.53;;;;;;;17.52;92.92;97148.50;6148940;28;20230;-54
2023/08/03 13:37:27;;;;;;;2.47;1.10;;;;;;;17.58;93.29;97162.66;6128419;28;20235;-54
2023/08/03 13:40:30;;;;;;;1.00;0.70;;;;;;;17.59;93.36;97156.19;6134599;28;20238;-54
2023/08/03 13:43:37;;;;;;;1.57;0.67;;;;;;;17.56;93.36;97171.03;6173517;23;20226;-53
2023/08/03 13:46:41;;;;;;;1.10;0.70;;;;;;;17.43;93.85;97155.66;6191831;28;20247;-55
2023/08/03 13:49:48;;;;;;;2.03;0.80;;;;;;;17.54;94.07;97157.09;6154704;28;20249;-54
2023/08/03 13:52:54;;;;;;;1.27;0.53;;;;;;;17.34;93.85;97133.22;6182897;28;20235;-53
2023/08/03 13:59:33;;;;;;;1.70;1.00;;;;;;;17.51;92.92;97163.84;5667988;22;20247;-43
2023/08/03 14:02:37;;;;;;;1.87;0.87;;;;;;;17.50;92.42;97154.19;6231770;28;20568;-43
2023/08/03 14:05:44;;;;;;;0.70;0.60;;;;;;;17.51;92.65;97157.69;6230443;28;20234;-43
2023/08/03 14:09:07;;;;;;;2.33;1.10;;;;;;;17.52;92.60;97153.88;6194218;28;20255;-43
2023/08/03 14:12:15;;;;;;;0.97;0.67;;;;;;;17.53;92.89;97156.25;6232822;28;20732;-43
2023/08/03 14:15:27;;;;;;;1.17;0.63;;;;;;;17.51;92.97;97144.22;6234203;28;20212;-41
2023/08/03 14:18:32;;;;;;;3.23;0.80;;;;;;;17.62;93.05;97153.69;6232413;28;20239;-44
2023/08/03 14:21:40;;;;;;;1.40;0.73;;;;;;;17.67;93.21;97156.25;6232005;28;20254;-43
2023/08/03 14:25:01;;;;;;;1.33;0.70;;;;;;;17.71;93.45;97151.88;6229740;28;20231;-42
2023/08/03 14:28:06;;;;;;;0.87;0.70;;;;;;;17.78;93.60;97160.41;6230996;28;20273;-43
2023/08/03 14:31:11;;;;;;;2.50;0.90;;;;;;;17.64;93.45;97129.16;6232928;28;20251;-42
2023/08/03 14:34:14;;;;;;;2.20;0.93;;;;;;;17.81;94.45;97150.09;6232475;28;20242;-44